sensor_id;sensor_type;location;lat;lon;timestamp;P1;durP1;ratioP1;P2;durP2;ratioP2
62788;SDS011;66401;42.016;21.454;2023-07-08T00:00:51;12.93;;;8.37;;
62788;SDS011;66401;42.016;21.454;2023-07-08T00:03:18;15.77;;;8.27;;
62788;SDS011;66401;42.016;21.454;2023-07-08T00:05:45;11.93;;;8.87;;
62788;SDS011;66401;42.016;21.454;2023-07-08T00:08:15;10.33;;;8.57;;
62788;SDS011;66401;42.016;21.454;2023-07-08T00:10:42;13.90;;;8.47;;
62788;SDS011;66401;42.016;21.454;2023-07-08T00:13:08;14.93;;;9.00;;
62788;SDS011;66401;42.016;21.454;2023-07-08T00:15:35;11.17;;;8.83;;
62788;SDS011;66401;42.016;21.454;2023-07-08T00:18:01;12.50;;;9.10;;
62788;SDS011;66401;42.016;21.454;2023-07-08T00:20:36;15.07;;;9.23;;
62788;SDS011;66401;42.016;21.454;2023-07-08T00:23:04;12.90;;;9.30;;
62788;SDS011;66401;42.016;21.454;2023-07-08T00:25:32;14.53;;;9.33;;
62788;SDS011;66401;42.016;21.454;2023-07-08T00:27:57;14.73;;;9.97;;
62788;SDS011;66401;42.016;21.454;2023-07-08T00:32:51;11.30;;;9.07;;
62788;SDS011;66401;42.016;21.454;2023-07-08T00:43:23;11.63;;;7.33;;
62788;SDS011;66401;42.016;21.454;2023-07-08T00:45:57;8.97;;;7.30;;
62788;SDS011;66401;42.016;21.454;2023-07-08T00:48:36;12.40;;;6.87;;
62788;SDS011;66401;42.016;21.454;2023-07-08T00:51:02;12.70;;;7.07;;
62788;SDS011;66401;42.016;21.454;2023-07-08T00:53:31;12.10;;;8.83;;
62788;SDS011;66401;42.016;21.454;2023-07-08T00:58:53;14.30;;;8.87;;
62788;SDS011;66401;42.016;21.454;2023-07-08T01:01:25;13.50;;;8.57;;
62788;SDS011;66401;42.016;21.454;2023-07-08T01:03:57;14.37;;;9.07;;
62788;SDS011;66401;42.016;21.454;2023-07-08T01:06:28;9.83;;;8.40;;
62788;SDS011;66401;42.016;21.454;2023-07-08T01:09:01;12.87;;;7.50;;
62788;SDS011;66401;42.016;21.454;2023-07-08T01:11:30;9.47;;;7.40;;
62788;SDS011;66401;42.016;21.454;2023-07-08T01:13:57;8.33;;;6.33;;
62788;SDS011;66401;42.016;21.454;2023-07-08T01:16:25;9.03;;;7.13;;
62788;SDS011;66401;42.016;21.454;2023-07-08T01:18:51;10.17;;;6.50;;
62788;SDS011;66401;42.016;21.454;2023-07-08T01:22:20;7.17;;;5.53;;
62788;SDS011;66401;42.016;21.454;2023-07-08T01:24:18;6.73;;;5.77;;
62788;SDS011;66401;42.016;21.454;2023-07-08T01:26:44;8.13;;;5.77;;
62788;SDS011;66401;42.016;21.454;2023-07-08T01:29:11;6.37;;;5.13;;
62788;SDS011;66401;42.016;21.454;2023-07-08T01:31:37;10.60;;;5.43;;
62788;SDS011;66401;42.016;21.454;2023-07-08T01:34:03;5.90;;;5.20;;
62788;SDS011;66401;42.016;21.454;2023-07-08T01:36:35;6.97;;;5.40;;
62788;SDS011;66401;42.016;21.454;2023-07-08T01:39:05;10.50;;;5.50;;
62788;SDS011;66401;42.016;21.454;2023-07-08T01:41:30;7.80;;;5.43;;
62788;SDS011;66401;42.016;21.454;2023-07-08T01:43:56;6.17;;;5.50;;
62788;SDS011;66401;42.016;21.454;2023-07-08T01:46:24;8.70;;;5.40;;
62788;SDS011;66401;42.016;21.454;2023-07-08T01:48:53;9.03;;;5.20;;
62788;SDS011;66401;42.016;21.454;2023-07-08T01:51:21;8.20;;;5.83;;
62788;SDS011;66401;42.016;21.454;2023-07-08T01:53:49;7.37;;;5.53;;
62788;SDS011;66401;42.016;21.454;2023-07-08T01:59:36;10.67;;;6.20;;
62788;SDS011;66401;42.016;21.454;2023-07-08T02:02:02;7.03;;;5.83;;
62788;SDS011;66401;42.016;21.454;2023-07-08T02:04:27;9.70;;;5.80;;
62788;SDS011;66401;42.016;21.454;2023-07-08T02:06:55;7.60;;;6.13;;
62788;SDS011;66401;42.016;21.454;2023-07-08T02:09:23;8.10;;;5.90;;
62788;SDS011;66401;42.016;21.454;2023-07-08T02:11:50;7.60;;;6.20;;
62788;SDS011;66401;42.016;21.454;2023-07-08T02:14:16;11.83;;;6.63;;
62788;SDS011;66401;42.016;21.454;2023-07-08T02:16:42;7.37;;;6.67;;
62788;SDS011;66401;42.016;21.454;2023-07-08T02:19:07;9.50;;;6.53;;
62788;SDS011;66401;42.016;21.454;2023-07-08T02:21:33;7.77;;;6.10;;
62788;SDS011;66401;42.016;21.454;2023-07-08T02:23:59;9.80;;;6.50;;
62788;SDS011;66401;42.016;21.454;2023-07-08T02:26:25;8.73;;;6.13;;
62788;SDS011;66401;42.016;21.454;2023-07-08T02:28:51;11.90;;;6.87;;
62788;SDS011;66401;42.016;21.454;2023-07-08T02:31:17;9.67;;;6.57;;
62788;SDS011;66401;42.016;21.454;2023-07-08T02:33:42;11.03;;;6.93;;
62788;SDS011;66401;42.016;21.454;2023-07-08T02:36:08;8.60;;;5.83;;
62788;SDS011;66401;42.016;21.454;2023-07-08T02:38:33;9.20;;;6.37;;
62788;SDS011;66401;42.016;21.454;2023-07-08T02:40:59;8.37;;;6.50;;
62788;SDS011;66401;42.016;21.454;2023-07-08T02:43:25;8.80;;;6.50;;
62788;SDS011;66401;42.016;21.454;2023-07-08T02:45:51;7.27;;;6.03;;
62788;SDS011;66401;42.016;21.454;2023-07-08T02:48:17;8.97;;;6.33;;
62788;SDS011;66401;42.016;21.454;2023-07-08T02:50:44;8.63;;;6.23;;
62788;SDS011;66401;42.016;21.454;2023-07-08T02:53:09;8.03;;;6.00;;
62788;SDS011;66401;42.016;21.454;2023-07-08T02:55:35;10.80;;;6.20;;
62788;SDS011;66401;42.016;21.454;2023-07-08T02:58:00;7.87;;;6.37;;
62788;SDS011;66401;42.016;21.454;2023-07-08T03:00:26;7.33;;;6.00;;
62788;SDS011;66401;42.016;21.454;2023-07-08T03:02:51;7.67;;;5.70;;
62788;SDS011;66401;42.016;21.454;2023-07-08T03:05:17;10.97;;;6.20;;
62788;SDS011;66401;42.016;21.454;2023-07-08T03:08:01;6.50;;;5.70;;
62788;SDS011;66401;42.016;21.454;2023-07-08T03:10:27;7.73;;;5.87;;
62788;SDS011;66401;42.016;21.454;2023-07-08T03:12:52;6.70;;;6.00;;
62788;SDS011;66401;42.016;21.454;2023-07-08T03:17:53;7.93;;;5.97;;
62788;SDS011;66401;42.016;21.454;2023-07-08T03:20:24;8.53;;;6.67;;
62788;SDS011;66401;42.016;21.454;2023-07-08T03:23:04;7.70;;;5.80;;
62788;SDS011;66401;42.016;21.454;2023-07-08T03:25:30;9.97;;;5.57;;
62788;SDS011;66401;42.016;21.454;2023-07-08T03:27:55;7.00;;;5.50;;
62788;SDS011;66401;42.016;21.454;2023-07-08T03:30:26;8.80;;;6.03;;
62788;SDS011;66401;42.016;21.454;2023-07-08T03:32:52;6.10;;;5.47;;
62788;SDS011;66401;42.016;21.454;2023-07-08T03:35:20;8.53;;;5.50;;
62788;SDS011;66401;42.016;21.454;2023-07-08T03:40:16;8.53;;;6.03;;
62788;SDS011;66401;42.016;21.454;2023-07-08T03:42:41;9.60;;;5.53;;
62788;SDS011;66401;42.016;21.454;2023-07-08T03:47:57;7.13;;;5.53;;
62788;SDS011;66401;42.016;21.454;2023-07-08T03:50:24;8.90;;;5.80;;
62788;SDS011;66401;42.016;21.454;2023-07-08T03:52:51;8.23;;;5.50;;
62788;SDS011;66401;42.016;21.454;2023-07-08T03:55:18;8.07;;;5.50;;
62788;SDS011;66401;42.016;21.454;2023-07-08T03:57:44;9.07;;;5.83;;
62788;SDS011;66401;42.016;21.454;2023-07-08T04:00:21;7.53;;;5.60;;
62788;SDS011;66401;42.016;21.454;2023-07-08T04:02:47;6.20;;;5.30;;
62788;SDS011;66401;42.016;21.454;2023-07-08T04:05:13;6.97;;;5.47;;
62788;SDS011;66401;42.016;21.454;2023-07-08T04:07:44;9.03;;;5.77;;
62788;SDS011;66401;42.016;21.454;2023-07-08T04:10:10;10.83;;;5.70;;
62788;SDS011;66401;42.016;21.454;2023-07-08T04:12:37;7.03;;;5.70;;
62788;SDS011;66401;42.016;21.454;2023-07-08T04:15:04;8.03;;;5.73;;
62788;SDS011;66401;42.016;21.454;2023-07-08T04:17:32;8.83;;;5.93;;
62788;SDS011;66401;42.016;21.454;2023-07-08T04:19:58;7.63;;;5.73;;
62788;SDS011;66401;42.016;21.454;2023-07-08T04:22:29;6.53;;;5.57;;
62788;SDS011;66401;42.016;21.454;2023-07-08T04:24:54;9.20;;;6.23;;
62788;SDS011;66401;42.016;21.454;2023-07-08T04:27:20;8.50;;;5.90;;
62788;SDS011;66401;42.016;21.454;2023-07-08T04:29:46;8.33;;;6.13;;
62788;SDS011;66401;42.016;21.454;2023-07-08T04:32:11;8.00;;;5.57;;
62788;SDS011;66401;42.016;21.454;2023-07-08T04:34:37;7.20;;;5.53;;
62788;SDS011;66401;42.016;21.454;2023-07-08T04:37:02;8.67;;;5.77;;
62788;SDS011;66401;42.016;21.454;2023-07-08T04:39:30;11.43;;;6.20;;
62788;SDS011;66401;42.016;21.454;2023-07-08T04:41:56;11.07;;;5.80;;
62788;SDS011;66401;42.016;21.454;2023-07-08T04:44:21;7.83;;;5.63;;
62788;SDS011;66401;42.016;21.454;2023-07-08T04:47:05;7.80;;;5.67;;
62788;SDS011;66401;42.016;21.454;2023-07-08T04:49:31;7.47;;;5.80;;
62788;SDS011;66401;42.016;21.454;2023-07-08T04:51:58;6.73;;;5.67;;
62788;SDS011;66401;42.016;21.454;2023-07-08T04:54:24;12.20;;;6.10;;
62788;SDS011;66401;42.016;21.454;2023-07-08T04:56:50;10.43;;;6.13;;
62788;SDS011;66401;42.016;21.454;2023-07-08T04:59:18;7.30;;;5.43;;
62788;SDS011;66401;42.016;21.454;2023-07-08T05:01:45;8.93;;;5.60;;
62788;SDS011;66401;42.016;21.454;2023-07-08T05:04:12;6.57;;;5.77;;
62788;SDS011;66401;42.016;21.454;2023-07-08T05:06:39;6.63;;;5.83;;
62788;SDS011;66401;42.016;21.454;2023-07-08T05:09:04;9.50;;;5.90;;
62788;SDS011;66401;42.016;21.454;2023-07-08T05:11:30;6.97;;;5.87;;
62788;SDS011;66401;42.016;21.454;2023-07-08T05:13:56;6.97;;;5.93;;
62788;SDS011;66401;42.016;21.454;2023-07-08T05:16:22;8.70;;;5.90;;
62788;SDS011;66401;42.016;21.454;2023-07-08T05:18:47;7.90;;;5.80;;
62788;SDS011;66401;42.016;21.454;2023-07-08T05:21:14;7.03;;;5.97;;
62788;SDS011;66401;42.016;21.454;2023-07-08T05:23:40;7.60;;;5.97;;
62788;SDS011;66401;42.016;21.454;2023-07-08T05:26:06;13.27;;;6.60;;
62788;SDS011;66401;42.016;21.454;2023-07-08T05:28:35;11.80;;;7.10;;
62788;SDS011;66401;42.016;21.454;2023-07-08T05:34:22;8.83;;;6.37;;
62788;SDS011;66401;42.016;21.454;2023-07-08T05:36:47;7.73;;;6.77;;
62788;SDS011;66401;42.016;21.454;2023-07-08T05:39:13;10.87;;;7.10;;
62788;SDS011;66401;42.016;21.454;2023-07-08T05:41:38;9.37;;;6.70;;
62788;SDS011;66401;42.016;21.454;2023-07-08T05:44:04;8.30;;;6.47;;
62788;SDS011;66401;42.016;21.454;2023-07-08T05:46:29;9.07;;;7.03;;
62788;SDS011;66401;42.016;21.454;2023-07-08T05:48:55;9.27;;;6.83;;
62788;SDS011;66401;42.016;21.454;2023-07-08T05:51:20;10.07;;;6.63;;
62788;SDS011;66401;42.016;21.454;2023-07-08T05:53:46;8.23;;;6.67;;
62788;SDS011;66401;42.016;21.454;2023-07-08T05:56:12;7.63;;;6.33;;
62788;SDS011;66401;42.016;21.454;2023-07-08T05:58:38;8.50;;;6.80;;
62788;SDS011;66401;42.016;21.454;2023-07-08T06:01:03;7.70;;;6.70;;
62788;SDS011;66401;42.016;21.454;2023-07-08T06:03:29;10.37;;;7.23;;
62788;SDS011;66401;42.016;21.454;2023-07-08T06:05:55;8.00;;;6.97;;
62788;SDS011;66401;42.016;21.454;2023-07-08T06:08:21;7.10;;;6.43;;
62788;SDS011;66401;42.016;21.454;2023-07-08T06:10:47;8.97;;;6.23;;
62788;SDS011;66401;42.016;21.454;2023-07-08T06:13:12;8.80;;;6.40;;
62788;SDS011;66401;42.016;21.454;2023-07-08T06:15:39;7.77;;;6.07;;
62788;SDS011;66401;42.016;21.454;2023-07-08T06:18:06;8.87;;;6.60;;
62788;SDS011;66401;42.016;21.454;2023-07-08T06:20:31;7.33;;;6.37;;
62788;SDS011;66401;42.016;21.454;2023-07-08T06:22:57;9.83;;;7.00;;
62788;SDS011;66401;42.016;21.454;2023-07-08T06:25:22;7.67;;;6.83;;
62788;SDS011;66401;42.016;21.454;2023-07-08T06:27:48;8.57;;;7.67;;
62788;SDS011;66401;42.016;21.454;2023-07-08T06:30:13;7.10;;;6.27;;
62788;SDS011;66401;42.016;21.454;2023-07-08T06:32:39;7.30;;;6.60;;
62788;SDS011;66401;42.016;21.454;2023-07-08T06:35:05;11.77;;;6.80;;
62788;SDS011;66401;42.016;21.454;2023-07-08T06:37:30;10.10;;;6.73;;
62788;SDS011;66401;42.016;21.454;2023-07-08T06:39:56;7.63;;;6.87;;
62788;SDS011;66401;42.016;21.454;2023-07-08T06:42:21;10.33;;;7.10;;
62788;SDS011;66401;42.016;21.454;2023-07-08T06:44:47;6.83;;;6.13;;
62788;SDS011;66401;42.016;21.454;2023-07-08T06:47:17;10.83;;;6.90;;
62788;SDS011;66401;42.016;21.454;2023-07-08T06:49:44;7.87;;;6.53;;
62788;SDS011;66401;42.016;21.454;2023-07-08T06:52:10;6.83;;;6.17;;
62788;SDS011;66401;42.016;21.454;2023-07-08T06:54:36;9.20;;;6.63;;
62788;SDS011;66401;42.016;21.454;2023-07-08T06:57:03;8.60;;;7.13;;
62788;SDS011;66401;42.016;21.454;2023-07-08T06:59:28;7.13;;;6.00;;
62788;SDS011;66401;42.016;21.454;2023-07-08T07:01:54;8.60;;;6.87;;
62788;SDS011;66401;42.016;21.454;2023-07-08T07:04:19;7.23;;;6.53;;
62788;SDS011;66401;42.016;21.454;2023-07-08T07:06:45;7.13;;;6.20;;
62788;SDS011;66401;42.016;21.454;2023-07-08T07:09:11;8.53;;;5.90;;
62788;SDS011;66401;42.016;21.454;2023-07-08T07:11:36;7.73;;;6.00;;
62788;SDS011;66401;42.016;21.454;2023-07-08T07:14:02;6.47;;;5.70;;
62788;SDS011;66401;42.016;21.454;2023-07-08T07:16:28;8.07;;;5.87;;
62788;SDS011;66401;42.016;21.454;2023-07-08T07:18:53;10.53;;;6.13;;
62788;SDS011;66401;42.016;21.454;2023-07-08T07:21:19;6.73;;;5.80;;
62788;SDS011;66401;42.016;21.454;2023-07-08T07:23:45;7.00;;;6.07;;
62788;SDS011;66401;42.016;21.454;2023-07-08T07:26:10;6.03;;;5.47;;
62788;SDS011;66401;42.016;21.454;2023-07-08T07:28:36;6.80;;;5.10;;
62788;SDS011;66401;42.016;21.454;2023-07-08T07:31:02;7.47;;;5.40;;
62788;SDS011;66401;42.016;21.454;2023-07-08T07:33:30;5.70;;;4.70;;
62788;SDS011;66401;42.016;21.454;2023-07-08T07:35:56;5.10;;;4.70;;
62788;SDS011;66401;42.016;21.454;2023-07-08T07:38:21;6.00;;;5.40;;
62788;SDS011;66401;42.016;21.454;2023-07-08T07:40:51;7.10;;;5.80;;
62788;SDS011;66401;42.016;21.454;2023-07-08T07:43:17;7.43;;;5.10;;
62788;SDS011;66401;42.016;21.454;2023-07-08T07:48:43;7.80;;;5.60;;
62788;SDS011;66401;42.016;21.454;2023-07-08T07:51:09;5.93;;;4.90;;
62788;SDS011;66401;42.016;21.454;2023-07-08T07:53:36;5.57;;;5.03;;
62788;SDS011;66401;42.016;21.454;2023-07-08T07:56:03;5.73;;;5.07;;
62788;SDS011;66401;42.016;21.454;2023-07-08T07:58:30;6.30;;;5.30;;
62788;SDS011;66401;42.016;21.454;2023-07-08T08:00:57;5.40;;;4.90;;
62788;SDS011;66401;42.016;21.454;2023-07-08T08:03:23;6.73;;;5.03;;
62788;SDS011;66401;42.016;21.454;2023-07-08T08:05:49;7.07;;;5.10;;
62788;SDS011;66401;42.016;21.454;2023-07-08T08:08:15;5.43;;;4.80;;
62788;SDS011;66401;42.016;21.454;2023-07-08T08:10:43;6.00;;;5.23;;
62788;SDS011;66401;42.016;21.454;2023-07-08T08:13:09;8.57;;;4.63;;
62788;SDS011;66401;42.016;21.454;2023-07-08T08:15:35;5.30;;;3.93;;
62788;SDS011;66401;42.016;21.454;2023-07-08T08:18:01;5.20;;;4.70;;
62788;SDS011;66401;42.016;21.454;2023-07-08T08:20:27;6.57;;;4.10;;
62788;SDS011;66401;42.016;21.454;2023-07-08T08:25:43;5.83;;;4.00;;
62788;SDS011;66401;42.016;21.454;2023-07-08T08:28:08;4.80;;;4.00;;
62788;SDS011;66401;42.016;21.454;2023-07-08T08:30:34;8.40;;;4.73;;
62788;SDS011;66401;42.016;21.454;2023-07-08T08:33:00;4.83;;;4.23;;
62788;SDS011;66401;42.016;21.454;2023-07-08T08:35:26;6.07;;;4.50;;
62788;SDS011;66401;42.016;21.454;2023-07-08T08:37:52;5.70;;;4.50;;
62788;SDS011;66401;42.016;21.454;2023-07-08T08:40:19;7.80;;;4.67;;
62788;SDS011;66401;42.016;21.454;2023-07-08T08:43:06;4.93;;;4.33;;
62788;SDS011;66401;42.016;21.454;2023-07-08T08:45:46;4.90;;;4.30;;
62788;SDS011;66401;42.016;21.454;2023-07-08T08:48:18;6.73;;;4.47;;
62788;SDS011;66401;42.016;21.454;2023-07-08T08:50:52;8.43;;;4.40;;
62788;SDS011;66401;42.016;21.454;2023-07-08T08:53:25;8.90;;;4.37;;
62788;SDS011;66401;42.016;21.454;2023-07-08T08:55:56;5.50;;;4.40;;
62788;SDS011;66401;42.016;21.454;2023-07-08T08:58:36;4.37;;;4.03;;
62788;SDS011;66401;42.016;21.454;2023-07-08T09:01:15;6.87;;;4.60;;
62788;SDS011;66401;42.016;21.454;2023-07-08T09:03:56;5.67;;;4.43;;
62788;SDS011;66401;42.016;21.454;2023-07-08T09:06:27;5.57;;;4.80;;
62788;SDS011;66401;42.016;21.454;2023-07-08T09:08:54;7.10;;;5.33;;
62788;SDS011;66401;42.016;21.454;2023-07-08T09:13:51;8.10;;;5.57;;
62788;SDS011;66401;42.016;21.454;2023-07-08T09:19:41;7.90;;;5.33;;
62788;SDS011;66401;42.016;21.454;2023-07-08T09:24:38;6.47;;;5.80;;
62788;SDS011;66401;42.016;21.454;2023-07-08T09:27:18;9.47;;;5.70;;
62788;SDS011;66401;42.016;21.454;2023-07-08T09:29:44;7.53;;;5.97;;
62788;SDS011;66401;42.016;21.454;2023-07-08T09:32:13;10.53;;;6.37;;
62788;SDS011;66401;42.016;21.454;2023-07-08T09:34:52;11.47;;;5.80;;
62788;SDS011;66401;42.016;21.454;2023-07-08T09:39:50;8.03;;;5.50;;
62788;SDS011;66401;42.016;21.454;2023-07-08T09:42:18;7.20;;;5.73;;
62788;SDS011;66401;42.016;21.454;2023-07-08T09:44:45;9.53;;;5.90;;
62788;SDS011;66401;42.016;21.454;2023-07-08T09:47:23;9.13;;;5.47;;
62788;SDS011;66401;42.016;21.454;2023-07-08T09:49:56;8.27;;;5.73;;
62788;SDS011;66401;42.016;21.454;2023-07-08T09:52:22;6.40;;;5.03;;
62788;SDS011;66401;42.016;21.454;2023-07-08T09:54:48;9.83;;;5.67;;
62788;SDS011;66401;42.016;21.454;2023-07-08T09:57:28;7.20;;;5.03;;
62788;SDS011;66401;42.016;21.454;2023-07-08T10:00:02;10.23;;;6.27;;
62788;SDS011;66401;42.016;21.454;2023-07-08T10:02:38;6.67;;;5.40;;
62788;SDS011;66401;42.016;21.454;2023-07-08T10:05:14;9.03;;;5.43;;
62788;SDS011;66401;42.016;21.454;2023-07-08T10:07:51;10.20;;;5.70;;
62788;SDS011;66401;42.016;21.454;2023-07-08T10:10:22;6.30;;;5.40;;
62788;SDS011;66401;42.016;21.454;2023-07-08T10:12:57;8.23;;;5.50;;
62788;SDS011;66401;42.016;21.454;2023-07-08T10:15:31;7.57;;;5.40;;
62788;SDS011;66401;42.016;21.454;2023-07-08T10:18:01;13.60;;;5.60;;
62788;SDS011;66401;42.016;21.454;2023-07-08T10:20:29;5.30;;;4.80;;
62788;SDS011;66401;42.016;21.454;2023-07-08T10:26:12;8.33;;;5.30;;
62788;SDS011;66401;42.016;21.454;2023-07-08T10:28:49;6.20;;;5.23;;
62788;SDS011;66401;42.016;21.454;2023-07-08T10:40:53;7.40;;;5.73;;
62788;SDS011;66401;42.016;21.454;2023-07-08T10:54:07;6.23;;;5.00;;
62788;SDS011;66401;42.016;21.454;2023-07-08T11:08:03;7.07;;;4.80;;
62788;SDS011;66401;42.016;21.454;2023-07-08T11:10:40;6.77;;;5.13;;
62788;SDS011;66401;42.016;21.454;2023-07-08T11:13:29;5.60;;;4.50;;
62788;SDS011;66401;42.016;21.454;2023-07-08T11:16:05;6.67;;;5.37;;
62788;SDS011;66401;42.016;21.454;2023-07-08T11:19:13;8.67;;;4.87;;
62788;SDS011;66401;42.016;21.454;2023-07-08T11:21:45;5.50;;;4.73;;
62788;SDS011;66401;42.016;21.454;2023-07-08T11:24:22;5.93;;;4.97;;
62788;SDS011;66401;42.016;21.454;2023-07-08T11:26:55;5.70;;;4.70;;
62788;SDS011;66401;42.016;21.454;2023-07-08T11:29:36;6.47;;;4.70;;
62788;SDS011;66401;42.016;21.454;2023-07-08T11:32:05;7.33;;;5.13;;
62788;SDS011;66401;42.016;21.454;2023-07-08T11:34:34;6.77;;;4.47;;
62788;SDS011;66401;42.016;21.454;2023-07-08T11:37:03;6.30;;;4.53;;
62788;SDS011;66401;42.016;21.454;2023-07-08T11:39:38;5.73;;;5.00;;
62788;SDS011;66401;42.016;21.454;2023-07-08T11:44:41;7.23;;;4.50;;
62788;SDS011;66401;42.016;21.454;2023-07-08T11:47:16;5.73;;;4.80;;
62788;SDS011;66401;42.016;21.454;2023-07-08T11:49:46;4.90;;;4.40;;
62788;SDS011;66401;42.016;21.454;2023-07-08T11:52:15;6.03;;;4.47;;
62788;SDS011;66401;42.016;21.454;2023-07-08T11:54:45;4.67;;;4.27;;
62788;SDS011;66401;42.016;21.454;2023-07-08T11:57:19;5.93;;;4.37;;
62788;SDS011;66401;42.016;21.454;2023-07-08T12:00:06;7.87;;;4.87;;
62788;SDS011;66401;42.016;21.454;2023-07-08T12:02:55;5.43;;;4.67;;
62788;SDS011;66401;42.016;21.454;2023-07-08T12:05:28;4.90;;;4.30;;
62788;SDS011;66401;42.016;21.454;2023-07-08T12:07:59;6.27;;;4.17;;
62788;SDS011;66401;42.016;21.454;2023-07-08T12:12:56;4.63;;;3.90;;
62788;SDS011;66401;42.016;21.454;2023-07-08T12:17:54;5.47;;;4.57;;
62788;SDS011;66401;42.016;21.454;2023-07-08T12:20:31;5.30;;;4.73;;
62788;SDS011;66401;42.016;21.454;2023-07-08T12:23:02;5.60;;;4.50;;
62788;SDS011;66401;42.016;21.454;2023-07-08T12:25:30;4.97;;;4.40;;
62788;SDS011;66401;42.016;21.454;2023-07-08T12:27:57;5.63;;;5.00;;
62788;SDS011;66401;42.016;21.454;2023-07-08T12:30:23;6.10;;;4.50;;
62788;SDS011;66401;42.016;21.454;2023-07-08T12:32:50;6.07;;;4.60;;
62788;SDS011;66401;42.016;21.454;2023-07-08T12:35:18;4.50;;;4.10;;
62788;SDS011;66401;42.016;21.454;2023-07-08T12:37:47;7.17;;;4.40;;
62788;SDS011;66401;42.016;21.454;2023-07-08T12:40:13;6.40;;;4.23;;
62788;SDS011;66401;42.016;21.454;2023-07-08T12:42:39;4.67;;;4.27;;
62788;SDS011;66401;42.016;21.454;2023-07-08T12:45:12;5.70;;;4.97;;
62788;SDS011;66401;42.016;21.454;2023-07-08T12:47:40;7.03;;;4.17;;
62788;SDS011;66401;42.016;21.454;2023-07-08T12:50:08;5.23;;;4.13;;
62788;SDS011;66401;42.016;21.454;2023-07-08T12:52:42;5.53;;;4.17;;
62788;SDS011;66401;42.016;21.454;2023-07-08T12:55:11;5.87;;;4.50;;
62788;SDS011;66401;42.016;21.454;2023-07-08T12:57:37;6.50;;;4.57;;
62788;SDS011;66401;42.016;21.454;2023-07-08T13:00:11;5.60;;;4.77;;
62788;SDS011;66401;42.016;21.454;2023-07-08T13:02:39;5.00;;;4.50;;
62788;SDS011;66401;42.016;21.454;2023-07-08T13:05:05;6.60;;;4.67;;
62788;SDS011;66401;42.016;21.454;2023-07-08T13:07:41;5.10;;;4.60;;
62788;SDS011;66401;42.016;21.454;2023-07-08T13:10:15;5.07;;;4.40;;
62788;SDS011;66401;42.016;21.454;2023-07-08T13:12:47;6.13;;;4.30;;
62788;SDS011;66401;42.016;21.454;2023-07-08T13:18:17;5.03;;;3.80;;
62788;SDS011;66401;42.016;21.454;2023-07-08T13:20:49;5.07;;;4.60;;
62788;SDS011;66401;42.016;21.454;2023-07-08T13:23:17;4.73;;;4.03;;
62788;SDS011;66401;42.016;21.454;2023-07-08T13:25:44;4.57;;;4.17;;
62788;SDS011;66401;42.016;21.454;2023-07-08T13:30:51;7.00;;;4.57;;
62788;SDS011;66401;42.016;21.454;2023-07-08T13:33:22;6.83;;;5.20;;
62788;SDS011;66401;42.016;21.454;2023-07-08T13:35:48;5.30;;;4.77;;
62788;SDS011;66401;42.016;21.454;2023-07-08T13:41:37;7.40;;;4.97;;
62788;SDS011;66401;42.016;21.454;2023-07-08T13:44:08;5.77;;;4.70;;
62788;SDS011;66401;42.016;21.454;2023-07-08T13:46:36;5.73;;;4.73;;
62788;SDS011;66401;42.016;21.454;2023-07-08T13:51:46;5.57;;;4.57;;
62788;SDS011;66401;42.016;21.454;2023-07-08T13:56:46;8.60;;;4.50;;
62788;SDS011;66401;42.016;21.454;2023-07-08T13:59:16;6.57;;;4.57;;
62788;SDS011;66401;42.016;21.454;2023-07-08T14:01:44;5.97;;;4.10;;
62788;SDS011;66401;42.016;21.454;2023-07-08T14:04:12;6.77;;;4.73;;
62788;SDS011;66401;42.016;21.454;2023-07-08T14:06:41;4.83;;;4.33;;
62788;SDS011;66401;42.016;21.454;2023-07-08T14:09:16;4.77;;;4.10;;
62788;SDS011;66401;42.016;21.454;2023-07-08T14:11:44;5.67;;;5.00;;
62788;SDS011;66401;42.016;21.454;2023-07-08T14:14:10;7.43;;;5.20;;
62788;SDS011;66401;42.016;21.454;2023-07-08T14:16:37;5.73;;;4.00;;
62788;SDS011;66401;42.016;21.454;2023-07-08T14:19:06;7.93;;;4.73;;
62788;SDS011;66401;42.016;21.454;2023-07-08T14:21:37;7.37;;;5.07;;
62788;SDS011;66401;42.016;21.454;2023-07-08T14:24:08;5.83;;;4.53;;
62788;SDS011;66401;42.016;21.454;2023-07-08T14:26:36;7.10;;;4.50;;
62788;SDS011;66401;42.016;21.454;2023-07-08T14:29:02;9.97;;;4.20;;
62788;SDS011;66401;42.016;21.454;2023-07-08T14:31:27;9.87;;;7.23;;
62788;SDS011;66401;42.016;21.454;2023-07-08T14:34:03;14.73;;;10.87;;
62788;SDS011;66401;42.016;21.454;2023-07-08T14:36:34;14.90;;;8.33;;
62788;SDS011;66401;42.016;21.454;2023-07-08T14:38:59;9.67;;;5.60;;
62788;SDS011;66401;42.016;21.454;2023-07-08T14:41:26;8.43;;;6.03;;
62788;SDS011;66401;42.016;21.454;2023-07-08T14:43:52;9.57;;;6.33;;
62788;SDS011;66401;42.016;21.454;2023-07-08T14:46:17;7.20;;;5.03;;
62788;SDS011;66401;42.016;21.454;2023-07-08T14:48:43;9.07;;;5.60;;
62788;SDS011;66401;42.016;21.454;2023-07-08T14:51:09;8.10;;;5.93;;
62788;SDS011;66401;42.016;21.454;2023-07-08T14:53:34;7.87;;;4.90;;
62788;SDS011;66401;42.016;21.454;2023-07-08T14:56:00;8.80;;;5.97;;
62788;SDS011;66401;42.016;21.454;2023-07-08T14:58:43;9.27;;;5.00;;
62788;SDS011;66401;42.016;21.454;2023-07-08T15:01:17;5.33;;;4.70;;
62788;SDS011;66401;42.016;21.454;2023-07-08T15:03:45;6.23;;;4.70;;
62788;SDS011;66401;42.016;21.454;2023-07-08T15:06:11;5.87;;;4.67;;
62788;SDS011;66401;42.016;21.454;2023-07-08T15:08:36;7.03;;;5.40;;
62788;SDS011;66401;42.016;21.454;2023-07-08T15:11:02;14.17;;;7.43;;
62788;SDS011;66401;42.016;21.454;2023-07-08T15:13:31;9.50;;;6.17;;
62788;SDS011;66401;42.016;21.454;2023-07-08T15:15:57;11.83;;;6.43;;
62788;SDS011;66401;42.016;21.454;2023-07-08T15:18:23;11.23;;;5.53;;
62788;SDS011;66401;42.016;21.454;2023-07-08T15:20:48;12.67;;;6.20;;
62788;SDS011;66401;42.016;21.454;2023-07-08T15:23:14;6.03;;;4.80;;
62788;SDS011;66401;42.016;21.454;2023-07-08T15:25:40;16.50;;;8.00;;
62788;SDS011;66401;42.016;21.454;2023-07-08T15:28:07;6.90;;;5.73;;
62788;SDS011;66401;42.016;21.454;2023-07-08T15:30:40;8.07;;;4.90;;
62788;SDS011;66401;42.016;21.454;2023-07-08T15:33:08;4.73;;;4.33;;
62788;SDS011;66401;42.016;21.454;2023-07-08T15:35:36;8.30;;;5.03;;
62788;SDS011;66401;42.016;21.454;2023-07-08T15:38:01;5.67;;;4.33;;
62788;SDS011;66401;42.016;21.454;2023-07-08T15:40:30;5.50;;;4.60;;
62788;SDS011;66401;42.016;21.454;2023-07-08T15:42:58;5.47;;;4.50;;
62788;SDS011;66401;42.016;21.454;2023-07-08T15:45:27;4.50;;;3.97;;
62788;SDS011;66401;42.016;21.454;2023-07-08T15:47:55;5.17;;;4.10;;
62788;SDS011;66401;42.016;21.454;2023-07-08T15:50:22;4.80;;;3.47;;
62788;SDS011;66401;42.016;21.454;2023-07-08T15:52:49;4.20;;;3.80;;
62788;SDS011;66401;42.016;21.454;2023-07-08T15:55:26;5.87;;;3.80;;
62788;SDS011;66401;42.016;21.454;2023-07-08T15:57:56;5.90;;;3.77;;
62788;SDS011;66401;42.016;21.454;2023-07-08T16:00:26;4.60;;;3.90;;
62788;SDS011;66401;42.016;21.454;2023-07-08T16:02:56;3.77;;;3.47;;
62788;SDS011;66401;42.016;21.454;2023-07-08T16:05:24;6.50;;;3.87;;
62788;SDS011;66401;42.016;21.454;2023-07-08T16:07:53;5.20;;;3.63;;
62788;SDS011;66401;42.016;21.454;2023-07-08T16:10:19;7.83;;;4.73;;
62788;SDS011;66401;42.016;21.454;2023-07-08T16:12:46;3.83;;;3.53;;
62788;SDS011;66401;42.016;21.454;2023-07-08T16:15:26;4.60;;;3.40;;
62788;SDS011;66401;42.016;21.454;2023-07-08T16:17:55;4.10;;;3.70;;
62788;SDS011;66401;42.016;21.454;2023-07-08T16:20:23;3.50;;;3.20;;
62788;SDS011;66401;42.016;21.454;2023-07-08T16:22:50;10.03;;;4.70;;